Time;durP1;ratioP1;P1;durP2;ratioP2;P2;SDS_P1;SDS_P2;PMS_P1;PMS_P2;Temp;Humidity;BMP_temperature;BMP_pressure;BME280_temperature;BME280_humidity;BME280_pressure;Samples;Min_cycle;Max_cycle;Signal;HPM_P1;HPM_P2
2023/06/12 00:02:13;;;;;;;7.97;7.35;;;18.80;92.60;;;;;;5068767;28;20260;-78
2023/06/12 00:04:39;;;;;;;6.93;6.37;;;18.80;92.40;;;;;;5060048;28;20276;-79
2023/06/12 00:07:05;;;;;;;7.27;6.53;;;18.80;91.70;;;;;;5070430;28;20419;-77
2023/06/12 00:09:32;;;;;;;7.53;6.70;;;18.90;91.70;;;;;;5067529;28;21698;-77
2023/06/12 00:11:58;;;;;;;6.97;6.40;;;19.00;91.30;;;;;;5068322;28;20690;-77
2023/06/12 00:14:23;;;;;;;7.03;6.40;;;19.10;91.50;;;;;;5066013;28;20196;-78
2023/06/12 00:16:49;;;;;;;6.03;5.53;;;19.20;91.50;;;;;;5069438;28;20185;-78
2023/06/12 00:19:15;;;;;;;6.00;5.50;;;19.30;91.10;;;;;;5064399;28;20200;-76
2023/06/12 00:21:41;;;;;;;6.13;5.73;;;19.30;87.30;;;;;;5069742;28;20467;-78
2023/06/12 00:24:08;;;;;;;6.00;5.60;;;19.50;87.20;;;;;;5070723;28;20531;-74
2023/06/12 00:26:38;;;;;;;5.95;5.47;;;19.60;87.20;;;;;;5070551;28;20504;-76
2023/06/12 00:29:03;;;;;;;5.07;4.75;;;19.80;84.00;;;;;;5067126;28;20203;-77
2023/06/12 00:31:29;;;;;;;6.23;5.73;;;19.90;81.80;;;;;;5067659;28;20208;-76
2023/06/12 00:33:55;;;;;;;6.80;6.20;;;20.00;82.60;;;;;;5067971;28;20661;-80
2023/06/12 00:36:20;;;;;;;6.30;5.80;;;20.10;81.60;;;;;;5065038;28;20246;-78
2023/06/12 00:38:46;;;;;;;5.73;5.33;;;20.30;82.40;;;;;;5070368;28;20177;-78
2023/06/12 00:41:12;;;;;;;6.40;5.90;;;20.30;80.10;;;;;;5068389;28;20205;-78
2023/06/12 00:43:38;;;;;;;5.83;5.33;;;20.40;80.40;;;;;;5068468;28;20185;-78
2023/06/12 00:46:05;;;;;;;6.07;5.68;;;20.40;80.40;;;;;;5068899;28;20180;-78
2023/06/12 00:48:31;;;;;;;6.57;6.07;;;20.50;79.50;;;;;;5064325;28;20208;-79
2023/06/12 00:50:58;;;;;;;5.63;5.23;;;20.60;79.70;;;;;;5067089;28;20290;-76
2023/06/12 00:53:24;;;;;;;6.25;5.75;;;20.60;77.80;;;;;;5068423;28;20434;-79
2023/06/12 00:55:50;;;;;;;5.93;5.47;;;20.60;78.60;;;;;;5068702;28;20177;-80
2023/06/12 00:58:15;;;;;;;5.63;5.23;;;20.50;78.80;;;;;;5066936;28;20578;-78
2023/06/12 01:00:41;;;;;;;6.70;6.20;;;20.50;78.90;;;;;;5068315;28;20218;-78
2023/06/12 01:03:09;;;;;;;6.10;5.60;;;20.60;78.40;;;;;;5067199;28;20185;-76
2023/06/12 01:05:38;;;;;;;6.30;5.60;;;20.60;78.30;;;;;;5066022;28;20196;-78
2023/06/12 01:08:28;;;;;;;6.10;5.60;;;20.60;78.20;;;;;;5066650;28;20280;-78
2023/06/12 01:10:59;;;;;;;5.85;5.45;;;20.60;78.00;;;;;;5068557;28;20200;-78
2023/06/12 01:13:26;;;;;;;5.90;5.40;;;20.60;77.30;;;;;;5065997;28;20638;-76
2023/06/12 01:15:51;;;;;;;5.93;5.53;;;20.60;77.40;;;;;;5067102;28;20243;-78
2023/06/12 01:18:20;;;;;;;6.50;6.00;;;20.50;78.10;;;;;;5067195;28;20180;-78
2023/06/12 01:20:46;;;;;;;5.72;5.25;;;20.50;77.50;;;;;;5066425;28;20211;-78
2023/06/12 01:23:43;;;;;;;5.88;5.47;;;20.50;78.10;;;;;;5067263;28;20188;-79
2023/06/12 01:26:33;;;;;;;5.97;5.47;;;20.50;77.80;;;;;;5064602;28;20196;-78
2023/06/12 01:29:17;;;;;;;5.93;5.38;;;20.40;78.40;;;;;;5066049;28;20208;-75
2023/06/12 01:32:01;;;;;;;6.35;5.75;;;20.40;79.10;;;;;;5062599;28;20554;-76
2023/06/12 01:34:36;;;;;;;5.90;5.40;;;20.50;78.80;;;;;;5064960;28;20572;-78
2023/06/12 01:37:57;;;;;;;6.07;5.63;;;20.40;78.70;;;;;;5065720;28;20231;-78
2023/06/12 01:40:26;;;;;;;6.82;6.22;;;20.40;79.10;;;;;;5044610;28;20220;-77
2023/06/12 01:42:52;;;;;;;6.20;5.70;;;20.40;79.60;;;;;;5067781;28;20193;-77
2023/06/12 01:45:17;;;;;;;5.50;5.10;;;20.40;79.70;;;;;;5066448;28;20692;-78
2023/06/12 01:47:43;;;;;;;7.10;6.53;;;20.40;80.00;;;;;;5069161;28;20250;-77
2023/06/12 01:50:10;;;;;;;6.53;6.03;;;20.40;80.50;;;;;;5064839;28;20200;-78
2023/06/12 01:52:38;;;;;;;6.10;5.60;;;20.20;82.60;;;;;;5068947;28;20201;-78
2023/06/12 01:55:04;;;;;;;5.82;5.43;;;20.10;83.10;;;;;;5070219;28;20181;-78
2023/06/12 01:57:32;;;;;;;6.53;5.93;;;19.80;84.00;;;;;;5069464;28;20185;-80
2023/06/12 01:59:59;;;;;;;6.20;5.70;;;19.60;84.70;;;;;;5065557;28;20213;-78
2023/06/12 02:02:26;;;;;;;6.68;6.18;;;19.30;86.00;;;;;;5069841;28;20200;-78
2023/06/12 02:04:52;;;;;;;6.78;6.18;;;19.10;87.00;;;;;;5073750;28;20173;-77
2023/06/12 02:07:17;;;;;;;6.97;6.30;;;18.90;87.90;;;;;;5079912;28;20185;-77
2023/06/12 02:09:43;;;;;;;6.10;5.60;;;18.60;88.90;;;;;;5080693;28;21061;-78
2023/06/12 02:12:09;;;;;;;7.00;6.50;;;18.60;89.60;;;;;;5081140;28;20244;-77
2023/06/12 02:14:35;;;;;;;7.13;6.53;;;18.50;90.20;;;;;;5070045;28;20169;-77
2023/06/12 02:17:02;;;;;;;6.37;5.97;;;18.20;90.90;;;;;;5075412;28;20189;-78
2023/06/12 02:19:28;;;;;;;7.32;6.72;;;18.20;91.80;;;;;;5069302;28;20181;-78
2023/06/12 02:22:01;;;;;;;7.10;6.50;;;18.10;91.40;;;;;;5082351;28;20196;-80
2023/06/12 02:24:31;;;;;;;6.70;6.20;;;18.00;91.70;;;;;;5071017;28;20185;-76
2023/06/12 02:26:57;;;;;;;6.57;6.07;;;17.90;91.60;;;;;;5072264;28;20228;-78
2023/06/12 02:29:23;;;;;;;6.43;5.90;;;18.00;92.00;;;;;;5070246;28;20240;-78
2023/06/12 02:31:49;;;;;;;6.95;6.35;;;18.00;92.30;;;;;;5068942;28;20220;-78
2023/06/12 02:34:15;;;;;;;6.70;6.10;;;17.80;92.60;;;;;;5076544;28;20721;-77
2023/06/12 02:36:46;;;;;;;7.30;6.70;;;17.70;92.80;;;;;;5069877;28;20601;-75
2023/06/12 02:39:15;;;;;;;6.47;5.97;;;17.70;93.10;;;;;;5070214;28;20189;-78
2023/06/12 02:41:42;;;;;;;6.88;6.30;;;17.70;93.30;;;;;;5069687;28;20204;-79
2023/06/12 02:44:08;;;;;;;7.15;6.55;;;17.60;93.80;;;;;;5067836;28;20185;-76
2023/06/12 02:46:48;;;;;;;7.03;6.53;;;17.50;94.00;;;;;;5066698;28;20730;-76
2023/06/12 02:49:14;;;;;;;6.93;6.32;;;17.40;94.30;;;;;;5069396;28;21476;-76
2023/06/12 02:51:40;;;;;;;7.60;6.93;;;17.40;94.90;;;;;;5070843;28;20247;-76
2023/06/12 02:54:05;;;;;;;7.33;6.73;;;17.40;95.00;;;;;;5071024;28;20181;-75
2023/06/12 02:56:31;;;;;;;6.33;5.83;;;17.20;95.30;;;;;;5071113;28;20196;-78
2023/06/12 02:58:56;;;;;;;6.97;6.27;;;17.10;95.40;;;;;;5067681;28;20188;-75
2023/06/12 03:01:23;;;;;;;6.50;6.00;;;19.00;96.50;;;;;;5071271;28;20218;-75
2023/06/12 03:03:50;;;;;;;6.30;5.80;;;17.10;95.70;;;;;;5069385;28;20271;-75
2023/06/12 03:06:16;;;;;;;6.80;6.25;;;17.00;96.00;;;;;;5068814;28;20197;-76
2023/06/12 03:08:42;;;;;;;7.07;6.47;;;17.10;96.30;;;;;;5070446;28;20209;-76
2023/06/12 03:11:07;;;;;;;6.50;6.00;;;17.00;96.30;;;;;;5069701;28;20205;-76
2023/06/12 03:13:33;;;;;;;7.37;6.77;;;16.90;96.40;;;;;;5068076;28;20208;-76
2023/06/12 03:15:59;;;;;;;7.80;6.93;;;16.90;97.10;;;;;;5069719;28;20219;-76
2023/06/12 03:18:25;;;;;;;7.50;6.90;;;16.90;97.60;;;;;;5069493;28;20725;-76
2023/06/12 03:20:50;;;;;;;6.80;6.20;;;16.90;97.20;;;;;;5064672;28;20656;-78
2023/06/12 03:23:16;;;;;;;7.47;6.87;;;16.90;97.10;;;;;;5068983;28;20294;-76
2023/06/12 03:25:42;;;;;;;7.30;6.80;;;16.80;97.30;;;;;;5068823;28;20235;-76
2023/06/12 03:28:07;;;;;;;7.47;6.20;;;16.70;97.50;;;;;;5067199;28;20570;-76
2023/06/12 03:30:33;;;;;;;7.60;6.20;;;16.90;97.90;;;;;;5067353;28;20197;-78
2023/06/12 03:32:58;;;;;;;7.13;6.43;;;16.60;97.80;;;;;;5068701;28;20488;-76
2023/06/12 03:35:24;;;;;;;7.30;6.67;;;16.80;98.30;;;;;;5067753;28;20538;-76
2023/06/12 03:37:50;;;;;;;7.23;6.63;;;16.40;98.30;;;;;;5070061;28;20181;-77
2023/06/12 03:40:16;;;;;;;7.10;6.50;;;16.50;98.50;;;;;;5067983;28;20576;-76
2023/06/12 03:42:41;;;;;;;7.00;6.40;;;16.50;98.70;;;;;;5068363;28;20209;-76
2023/06/12 03:45:10;;;;;;;7.53;6.93;;;16.40;99.00;;;;;;5065529;28;20802;-76
2023/06/12 03:47:35;;;;;;;7.70;6.90;;;16.40;98.90;;;;;;5068311;28;20561;-76
2023/06/12 03:50:01;;;;;;;7.30;6.70;;;16.60;99.20;;;;;;5067586;28;20199;-76
2023/06/12 03:52:27;;;;;;;7.10;6.50;;;16.60;99.40;;;;;;5068668;28;20181;-77
2023/06/12 03:54:53;;;;;;;7.50;6.93;;;16.40;99.50;;;;;;5069947;28;20651;-77
2023/06/12 03:57:20;;;;;;;8.43;7.60;;;16.40;99.80;;;;;;5066957;28;20266;-76
2023/06/12 03:59:46;;;;;;;6.65;6.03;;;16.40;99.80;;;;;;5069953;28;20677;-77
2023/06/12 04:02:12;;;;;;;7.28;6.55;;;16.40;99.80;;;;;;5071434;28;20192;-77
2023/06/12 04:04:38;;;;;;;7.33;6.73;;;16.60;99.90;;;;;;5063915;28;20596;-78
2023/06/12 04:07:03;;;;;;;6.23;5.70;;;16.20;99.70;;;;;;5072889;28;20431;-77
2023/06/12 04:09:30;;;;;;;7.90;7.23;;;16.40;99.90;;;;;;5068337;28;20261;-76
2023/06/12 04:11:56;;;;;;;7.35;6.72;;;16.20;99.90;;;;;;5073897;28;20677;-77
2023/06/12 04:14:21;;;;;;;7.00;6.43;;;16.20;99.90;;;;;;5072331;28;20649;-77
2023/06/12 04:16:47;;;;;;;9.20;6.77;;;16.50;99.90;;;;;;5070948;28;20216;-76
2023/06/12 04:19:13;;;;;;;7.43;6.83;;;16.60;99.90;;;;;;5065236;28;20268;-78
2023/06/12 04:21:39;;;;;;;7.47;6.88;;;16.40;99.90;;;;;;5069569;28;20208;-78
2023/06/12 04:24:13;;;;;;;7.33;6.80;;;16.60;99.90;;;;;;5075253;28;20181;-76
2023/06/12 04:26:39;;;;;;;8.02;7.30;;;16.70;99.90;;;;;;5068288;28;20184;-76
2023/06/12 04:29:08;;;;;;;7.07;6.47;;;16.70;99.90;;;;;;5066911;28;20207;-72
2023/06/12 04:31:34;;;;;;;7.20;6.60;;;16.80;99.90;;;;;;5061482;28;20215;-74
2023/06/12 04:34:00;;;;;;;7.20;6.60;;;16.80;99.90;;;;;;5069014;28;20271;-74
2023/06/12 04:36:26;;;;;;;7.53;5.82;;;16.90;99.90;;;;;;5062968;28;20209;-74
2023/06/12 04:38:52;;;;;;;7.53;6.77;;;;;;;;;;5068472;28;20215;-73
2023/06/12 04:41:19;;;;;;;7.47;6.88;;;17.10;99.80;;;;;;5070368;28;20635;-73
2023/06/12 04:43:48;;;;;;;7.55;6.85;;;17.00;99.90;;;;;;5066794;28;20195;-75
2023/06/12 04:46:15;;;;;;;7.53;6.72;;;17.20;99.50;;;;;;5066357;28;20193;-75
2023/06/12 04:48:42;;;;;;;7.68;7.03;;;17.30;99.90;;;;;;5069101;28;20255;-76
2023/06/12 04:51:08;;;;;;;7.40;6.80;;;17.40;99.70;;;;;;5068599;28;20637;-77
2023/06/12 04:53:34;;;;;;;7.65;7.00;;;17.60;99.50;;;;;;5072088;28;20186;-76
2023/06/12 04:56:00;;;;;;;7.43;6.77;;;17.60;99.30;;;;;;5066069;28;20185;-78
2023/06/12 04:58:26;;;;;;;8.48;7.65;;;17.70;99.10;;;;;;5074768;28;20225;-77
2023/06/12 05:00:55;;;;;;;7.63;7.03;;;17.70;98.90;;;;;;5066714;28;20278;-79
2023/06/12 05:03:23;;;;;;;7.40;6.60;;;17.60;98.80;;;;;;5064054;28;20205;-77
2023/06/12 05:05:49;;;;;;;7.20;6.60;;;17.90;98.80;;;;;;5064746;28;20181;-76
2023/06/12 05:08:15;;;;;;;8.20;7.40;;;18.00;98.60;;;;;;5071168;28;20209;-75
2023/06/12 05:10:41;;;;;;;8.57;7.88;;;18.10;98.40;;;;;;5075921;28;20561;-76
2023/06/12 05:13:07;;;;;;;7.13;6.53;;;18.20;98.20;;;;;;5068007;28;20564;-77
2023/06/12 05:15:32;;;;;;;8.50;7.57;;;18.40;98.10;;;;;;5067500;28;20687;-76
2023/06/12 05:17:58;;;;;;;8.90;8.00;;;18.40;98.20;;;;;;5065335;28;20234;-77
2023/06/12 05:20:24;;;;;;;8.57;7.23;;;18.50;97.80;;;;;;5062127;28;20204;-77
2023/06/12 05:22:50;;;;;;;8.37;7.63;;;18.60;97.50;;;;;;5073127;28;20181;-78
2023/06/12 05:25:16;;;;;;;9.15;8.25;;;18.80;97.20;;;;;;5066393;28;20185;-75
2023/06/12 05:27:41;;;;;;;7.33;6.80;;;18.90;97.30;;;;;;5059109;28;20200;-72
2023/06/12 05:30:07;;;;;;;8.00;6.47;;;19.20;96.90;;;;;;5063403;28;20194;-74
2023/06/12 05:32:34;;;;;;;7.70;7.00;;;19.40;96.70;;;;;;5064168;28;20178;-75
2023/06/12 05:35:00;;;;;;;7.75;7.05;;;19.60;95.90;;;;;;5065260;28;20443;-77
2023/06/12 05:37:26;;;;;;;7.75;7.15;;;19.80;95.10;;;;;;5064532;28;20799;-70
2023/06/12 05:39:53;;;;;;;8.30;7.60;;;20.00;94.80;;;;;;5064835;28;20197;-74
2023/06/12 05:42:18;;;;;;;8.55;7.75;;;20.10;94.40;;;;;;5063804;28;20288;-72
2023/06/12 05:44:46;;;;;;;7.77;7.20;;;20.20;94.30;;;;;;5070537;28;20265;-73
2023/06/12 05:47:15;;;;;;;7.68;6.97;;;20.30;93.90;;;;;;5066542;28;20216;-70
2023/06/12 05:49:41;;;;;;;11.15;7.25;;;20.40;93.50;;;;;;5065770;28;20204;-71
2023/06/12 05:52:07;;;;;;;7.87;7.13;;;20.40;93.20;;;;;;5069548;28;20189;-72
2023/06/12 05:54:33;;;;;;;7.80;7.20;;;20.40;92.90;;;;;;5070036;28;20177;-71
2023/06/12 05:57:00;;;;;;;8.50;7.50;;;20.50;92.80;;;;;;5068102;28;20180;-70
2023/06/12 05:59:25;;;;;;;14.50;12.98;;;20.50;92.70;;;;;;5067431;28;20245;-75
2023/06/12 06:01:51;;;;;;;8.30;7.60;;;20.60;92.70;;;;;;5068573;28;20308;-74
2023/06/12 06:04:18;;;;;;;10.50;9.50;;;20.60;92.60;;;;;;5068014;28;20193;-75
2023/06/12 06:06:43;;;;;;;8.48;7.60;;;20.70;92.20;;;;;;5070768;28;20560;-76
2023/06/12 06:09:09;;;;;;;8.80;7.90;;;20.60;92.40;;;;;;5069963;28;20295;-75
2023/06/12 06:11:35;;;;;;;9.67;8.87;;;20.80;92.70;;;;;;5071634;28;20500;-76
2023/06/12 06:14:01;;;;;;;8.07;7.40;;;20.90;92.70;;;;;;5066258;28;20180;-76
2023/06/12 06:16:26;;;;;;;8.00;7.20;;;21.00;92.40;;;;;;5069746;28;20184;-76
2023/06/12 06:18:52;;;;;;;11.53;9.20;;;21.10;92.00;;;;;;5069337;28;21247;-77
2023/06/12 06:21:18;;;;;;;8.52;7.82;;;21.10;91.90;;;;;;5065633;28;20197;-74
2023/06/12 06:23:44;;;;;;;11.20;8.60;;;21.30;91.70;;;;;;5069768;28;20641;-79
2023/06/12 06:26:10;;;;;;;8.40;7.80;;;21.50;91.20;;;;;;5068682;28;20280;-76
2023/06/12 06:28:36;;;;;;;7.63;6.93;;;21.70;90.90;;;;;;5067858;28;20465;-75
2023/06/12 06:31:03;;;;;;;8.17;7.47;;;21.90;90.80;;;;;;5066719;28;20466;-75
2023/06/12 06:33:29;;;;;;;8.30;7.47;;;22.00;90.40;;;;;;5068266;28;20942;-74
2023/06/12 06:35:55;;;;;;;7.50;6.80;;;22.00;90.30;;;;;;5061425;28;20880;-74
2023/06/12 06:38:24;;;;;;;8.33;7.63;;;22.00;90.50;;;;;;5067602;28;20435;-73
2023/06/12 06:40:51;;;;;;;7.80;7.20;;;22.20;90.30;;;;;;5068917;28;20469;-77
2023/06/12 06:43:16;;;;;;;7.30;6.80;;;22.20;89.20;;;;;;5072458;28;20449;-76
2023/06/12 06:45:42;;;;;;;6.77;6.27;;;22.20;89.00;;;;;;5071842;28;20574;-79
2023/06/12 06:48:08;;;;;;;7.53;6.93;;;22.30;88.90;;;;;;5071669;28;20215;-80
2023/06/12 06:50:34;;;;;;;8.23;7.57;;;22.40;88.30;;;;;;5067910;28;20196;-76
2023/06/12 06:53:02;;;;;;;6.90;6.30;;;22.60;87.80;;;;;;5068819;28;20444;-71
2023/06/12 06:55:27;;;;;;;7.90;7.20;;;22.80;87.40;;;;;;5067265;28;20184;-77
2023/06/12 06:57:54;;;;;;;7.60;6.90;;;23.00;86.50;;;;;;5073802;28;20443;-76
2023/06/12 07:00:21;;;;;;;7.20;6.53;;;23.30;85.20;;;;;;5063904;28;20204;-76
2023/06/12 07:02:48;;;;;;;7.70;6.50;;;23.80;83.90;;;;;;5066858;28;20442;-74
2023/06/12 07:05:14;;;;;;;7.73;7.13;;;24.80;81.30;;;;;;5066401;28;20544;-73
2023/06/12 07:07:40;;;;;;;7.10;6.60;;;26.90;74.00;;;;;;5065943;28;20776;-76
2023/06/12 07:10:07;;;;;;;6.63;6.23;;;28.70;66.90;;;;;;5065733;28;20469;-76
2023/06/12 07:12:34;;;;;;;6.97;6.40;;;30.20;59.80;;;;;;5066941;28;20488;-76
2023/06/12 07:14:59;;;;;;;6.50;6.10;;;30.80;57.10;;;;;;5067219;28;20449;-75
2023/06/12 07:17:25;;;;;;;8.67;6.93;;;32.40;53.70;;;;;;5068770;28;20451;-75
2023/06/12 07:19:51;;;;;;;7.00;6.40;;;33.20;50.50;;;;;;5059626;28;20184;-75
2023/06/12 07:22:16;;;;;;;7.10;6.50;;;33.90;48.00;;;;;;5067485;28;20177;-75
2023/06/12 07:24:42;;;;;;;6.83;6.40;;;34.30;46.80;;;;;;5066482;28;21641;-71
2023/06/12 07:27:08;;;;;;;6.70;6.23;;;34.70;45.50;;;;;;5066665;28;20642;-72
2023/06/12 07:29:34;;;;;;;6.83;6.33;;;35.20;44.00;;;;;;5067393;28;20215;-75
2023/06/12 07:32:00;;;;;;;6.67;6.20;;;36.00;42.00;;;;;;5066627;28;20585;-72
2023/06/12 07:34:26;;;;;;;6.97;6.50;;;36.80;41.00;;;;;;5062412;28;20440;-72
2023/06/12 07:36:52;;;;;;;6.83;6.43;;;37.00;39.30;;;;;;5065879;28;20192;-72
2023/06/12 07:39:18;;;;;;;6.80;6.30;;;36.40;39.50;;;;;;5067944;28;20235;-73
2023/06/12 07:41:44;;;;;;;6.90;6.40;;;36.30;39.50;;;;;;5065838;28;20197;-73
2023/06/12 07:44:13;;;;;;;7.10;6.50;;;37.20;38.60;;;;;;5068479;28;20450;-75
2023/06/12 07:46:41;;;;;;;7.37;6.80;;;37.60;39.10;;;;;;5069410;28;20193;-77
2023/06/12 07:49:06;;;;;;;8.33;6.40;;;38.80;36.80;;;;;;5065258;28;20471;-78
2023/06/12 07:51:32;;;;;;;8.97;8.27;;;39.30;35.30;;;;;;5066836;28;20473;-72
2023/06/12 07:53:58;;;;;;;6.73;6.33;;;39.10;35.70;;;;;;5068789;28;20744;-74
2023/06/12 07:56:24;;;;;;;7.80;7.07;;;38.90;34.80;;;;;;5068161;28;20177;-74
2023/06/12 07:58:51;;;;;;;8.17;7.57;;;39.20;34.70;;;;;;5070171;28;20181;-72
2023/06/12 08:01:17;;;;;;;7.53;6.90;;;39.20;35.00;;;;;;5067495;28;20462;-72
2023/06/12 08:03:43;;;;;;;6.40;5.97;;;40.30;33.80;;;;;;5065037;28;20482;-73
2023/06/12 08:06:13;;;;;;;7.50;6.80;;;40.30;32.40;;;;;;5064039;28;20962;-71
2023/06/12 08:08:43;;;;;;;6.80;6.37;;;40.10;32.30;;;;;;5066458;28;20573;-72
2023/06/12 08:11:10;;;;;;;6.70;6.27;;;40.00;32.50;;;;;;5065430;28;20520;-72
2023/06/12 08:13:35;;;;;;;6.80;6.30;;;39.60;32.30;;;;;;5064154;28;20454;-73
2023/06/12 08:16:02;;;;;;;7.23;6.73;;;39.80;32.60;;;;;;5064913;28;20955;-71
2023/06/12 08:18:28;;;;;;;6.80;6.30;;;40.50;31.30;;;;;;5065141;28;20212;-72
2023/06/12 08:20:54;;;;;;;7.73;6.97;;;40.60;30.50;;;;;;5062235;28;20962;-71
2023/06/12 08:23:20;;;;;;;6.73;6.23;;;39.30;30.60;;;;;;5067361;28;20538;-71
2023/06/12 08:25:45;;;;;;;6.27;5.80;;;39.10;31.10;;;;;;5065633;28;20207;-72
2023/06/12 08:28:11;;;;;;;6.07;5.67;;;38.10;31.10;;;;;;5065321;28;20475;-72
2023/06/12 08:30:37;;;;;;;6.33;5.93;;;38.10;30.10;;;;;;5067600;28;20262;-79
2023/06/12 08:33:06;;;;;;;8.70;6.57;;;38.80;30.60;;;;;;5067097;28;20443;-78
2023/06/12 08:35:31;;;;;;;6.43;5.93;;;38.70;30.70;;;;;;5064263;28;20192;-78
2023/06/12 08:37:57;;;;;;;6.70;6.20;;;37.90;31.00;;;;;;5066620;28;20447;-77
2023/06/12 08:40:23;;;;;;;6.90;6.50;;;37.60;32.30;;;;;;5066188;28;20223;-76
2023/06/12 08:42:52;;;;;;;7.20;6.60;;;37.40;33.30;;;;;;5062978;28;20633;-76
2023/06/12 08:45:25;;;;;;;7.63;7.00;;;36.80;33.00;;;;;;5064068;28;20181;-74
2023/06/12 08:47:51;;;;;;;7.00;6.50;;;35.40;34.90;;;;;;5064915;28;20461;-76
2023/06/12 08:50:18;;;;;;;7.57;6.80;;;33.90;36.00;;;;;;5067300;28;20466;-76
2023/06/12 08:52:45;;;;;;;7.90;7.30;;;33.90;37.20;;;;;;5063003;28;20457;-76
2023/06/12 08:55:15;;;;;;;6.83;6.10;;;33.90;36.50;;;;;;5064099;28;20452;-71
2023/06/12 08:57:41;;;;;;;6.43;5.93;;;33.00;36.70;;;;;;5067013;28;20454;-83
2023/06/12 09:00:12;;;;;;;7.30;6.80;;;33.00;37.80;;;;;;5068091;28;21187;-84
2023/06/12 09:02:44;;;;;;;7.40;6.70;;;32.30;38.60;;;;;;5068277;28;20448;-84
2023/06/12 09:05:16;;;;;;;7.50;6.63;;;31.60;40.20;;;;;;5070967;28;20461;-83
2023/06/12 09:07:44;;;;;;;6.53;6.10;;;31.50;38.90;;;;;;5072726;28;20454;-85
2023/06/12 09:10:10;;;;;;;6.40;5.80;;;32.00;38.50;;;;;;5067872;28;20474;-84
2023/06/12 09:12:35;;;;;;;7.27;6.37;;;32.60;37.20;;;;;;5062697;28;21030;-75
2023/06/12 09:15:02;;;;;;;6.47;5.97;;;32.10;37.90;;;;;;5060159;28;20185;-74
2023/06/12 09:17:32;;;;;;;6.90;6.40;;;32.90;37.10;;;;;;5066995;28;20642;-75
2023/06/12 09:19:57;;;;;;;6.80;6.30;;;33.50;36.00;;;;;;5065407;28;20430;-77
2023/06/12 09:22:23;;;;;;;6.73;6.20;;;33.20;36.50;;;;;;5066537;28;20431;-76
2023/06/12 09:24:48;;;;;;;6.87;6.23;;;33.90;36.20;;;;;;5069734;28;20189;-75
2023/06/12 09:27:14;;;;;;;6.30;5.80;;;33.60;35.70;;;;;;5071877;28;20172;-75
2023/06/12 09:29:42;;;;;;;7.00;6.50;;;33.40;35.50;;;;;;5070155;28;20218;-78
2023/06/12 09:32:10;;;;;;;6.73;6.33;;;33.40;35.40;;;;;;5068774;28;20669;-71
2023/06/12 09:34:36;;;;;;;6.43;6.03;;;33.00;35.80;;;;;;5063996;28;20451;-73
2023/06/12 09:37:09;;;;;;;6.57;6.07;;;33.30;35.70;;;;;;5067398;28;20820;-72
2023/06/12 09:39:35;;;;;;;7.00;6.30;;;34.70;33.60;;;;;;5067164;28;20185;-72
2023/06/12 09:42:02;;;;;;;10.63;5.70;;;36.20;31.80;;;;;;5066678;28;20498;-73
2023/06/12 09:44:29;;;;;;;6.63;6.17;;;36.00;31.40;;;;;;5068339;28;20504;-74
2023/06/12 09:47:03;;;;;;;6.50;6.00;;;35.70;32.10;;;;;;5067589;28;20512;-74
2023/06/12 09:49:30;;;;;;;6.70;6.07;;;35.90;31.90;;;;;;5080140;28;20482;-74
2023/06/12 09:52:00;;;;;;;7.20;6.50;;;36.20;31.90;;;;;;5059274;28;21543;-74
2023/06/12 09:54:29;;;;;;;6.73;6.23;;;36.10;31.90;;;;;;5066356;28;21263;-74
2023/06/12 09:56:57;;;;;;;7.40;6.50;;;35.00;32.50;;;;;;5071003;28;21018;-74
2023/06/12 09:59:30;;;;;;;7.50;6.73;;;34.50;33.80;;;;;;5070974;28;20488;-75
2023/06/12 10:02:16;;;;;;;6.10;5.60;;;35.10;32.80;;;;;;5068293;28;20462;-75
2023/06/12 10:05:03;;;;;;;6.40;6.00;;;35.10;32.50;;;;;;5064696;28;20531;-75
2023/06/12 10:07:34;;;;;;;6.90;6.43;;;35.90;30.90;;;;;;5069378;28;20439;-75
2023/06/12 10:10:07;;;;;;;6.80;6.23;;;36.70;31.40;;;;;;5069444;28;20474;-73
2023/06/12 10:12:33;;;;;;;7.30;6.80;;;37.50;30.50;;;;;;5064044;28;20486;-73
2023/06/12 10:15:00;;;;;;;6.70;6.20;;;37.60;30.30;;;;;;5057739;28;20434;-74
2023/06/12 10:17:27;;;;;;;6.70;6.20;;;37.60;29.50;;;;;;5070312;28;20442;-74
2023/06/12 10:19:55;;;;;;;7.57;6.97;;;37.60;29.80;;;;;;5068511;28;20443;-74
2023/06/12 10:22:20;;;;;;;6.50;6.10;;;36.50;31.30;;;;;;5066073;28;20446;-75
2023/06/12 10:24:46;;;;;;;6.90;6.40;;;35.60;31.10;;;;;;5064973;28;20442;-75
2023/06/12 10:27:13;;;;;;;7.77;7.07;;;34.80;32.80;;;;;;5068338;28;20185;-74
2023/06/12 10:29:39;;;;;;;7.33;6.63;;;33.60;33.70;;;;;;5069617;28;20462;-74
2023/06/12 10:32:15;;;;;;;6.53;6.13;;;32.60;34.80;;;;;;5084689;28;20462;-74
2023/06/12 10:34:43;;;;;;;7.07;6.57;;;31.90;35.70;;;;;;5062926;28;20971;-75
2023/06/12 10:37:27;;;;;;;6.83;6.23;;;32.10;35.80;;;;;;5066644;28;20446;-75
2023/06/12 10:40:09;;;;;;;6.03;5.53;;;32.80;34.70;;;;;;5069038;28;20447;-75
2023/06/12 10:42:49;;;;;;;7.60;7.00;;;32.90;35.20;;;;;;5067871;28;20447;-75
2023/06/12 10:45:29;;;;;;;6.83;6.33;;;34.00;33.80;;;;;;5064918;28;20568;-75
2023/06/12 10:48:07;;;;;;;6.93;6.43;;;34.40;32.30;;;;;;5079924;28;20986;-76
2023/06/12 10:50:37;;;;;;;6.20;5.80;;;35.20;32.30;;;;;;5066066;28;20466;-74
2023/06/12 10:53:05;;;;;;;6.53;5.97;;;36.00;31.10;;;;;;5067921;28;20450;-74
2023/06/12 10:55:32;;;;;;;7.03;6.53;;;35.30;31.30;;;;;;5069009;28;20454;-75
2023/06/12 10:58:07;;;;;;;6.57;6.10;;;34.70;31.50;;;;;;5067603;28;20534;-81
2023/06/12 11:00:38;;;;;;;6.87;6.20;;;35.10;31.60;;;;;;5064968;28;20465;-73
2023/06/12 11:03:16;;;;;;;6.50;6.10;;;35.80;30.90;;;;;;5069167;28;20443;-81
2023/06/12 11:05:56;;;;;;;6.83;6.30;;;36.40;30.40;;;;;;5067817;28;20511;-82
2023/06/12 11:08:34;;;;;;;6.20;5.70;;;36.40;29.90;;;;;;5070162;28;20455;-78
2023/06/12 11:11:10;;;;;;;7.23;6.70;;;37.20;30.00;;;;;;5067255;28;20466;-80
2023/06/12 11:13:39;;;;;;;6.97;6.57;;;37.70;29.50;;;;;;5065371;28;20804;-79
2023/06/12 11:16:05;;;;;;;6.97;6.57;;;37.10;29.80;;;;;;5071061;28;20443;-79
2023/06/12 11:18:31;;;;;;;6.60;6.20;;;37.30;29.10;;;;;;5070175;28;20446;-79
2023/06/12 11:20:57;;;;;;;6.87;6.47;;;37.00;29.50;;;;;;5068629;28;20263;-78
2023/06/12 11:23:27;;;;;;;6.60;6.10;;;35.80;30.30;;;;;;5072098;28;20219;-78
2023/06/12 11:25:55;;;;;;;7.27;6.70;;;35.70;30.40;;;;;;5074874;28;20496;-78
2023/06/12 11:28:25;;;;;;;6.60;6.10;;;35.70;30.20;;;;;;5069028;28;20528;-78
2023/06/12 11:30:53;;;;;;;6.80;6.20;;;34.70;31.80;;;;;;5071602;28;20820;-78
2023/06/12 11:33:27;;;;;;;7.60;6.90;;;34.10;32.60;;;;;;5066000;28;20449;-77
2023/06/12 11:36:04;;;;;;;7.20;6.70;;;33.10;33.50;;;;;;5064811;28;20469;-72
2023/06/12 11:38:39;;;;;;;7.73;7.00;;;33.10;34.10;;;;;;5068337;28;20508;-76
2023/06/12 11:41:10;;;;;;;6.53;5.97;;;32.60;34.80;;;;;;5067007;28;20473;-75
2023/06/12 11:43:36;;;;;;;6.47;6.07;;;32.80;34.60;;;;;;5062438;28;20446;-71
2023/06/12 11:46:03;;;;;;;6.27;5.67;;;32.50;33.80;;;;;;5067172;28;20447;-73
2023/06/12 11:48:30;;;;;;;5.90;5.30;;;31.90;34.10;;;;;;5067111;28;20223;-75
2023/06/12 11:50:56;;;;;;;6.83;6.23;;;31.30;33.70;;;;;;5067487;28;20521;-75
2023/06/12 11:53:22;;;;;;;6.93;6.43;;;30.50;35.00;;;;;;5066036;28;20457;-74
2023/06/12 11:55:48;;;;;;;7.20;6.60;;;30.40;36.00;;;;;;5066027;28;20177;-74
2023/06/12 11:58:14;;;;;;;6.70;6.20;;;30.50;35.60;;;;;;5065839;28;20181;-74
2023/06/12 12:00:41;;;;;;;6.50;6.00;;;30.40;35.70;;;;;;5066808;28;20473;-73
2023/06/12 12:03:09;;;;;;;5.93;5.53;;;30.20;36.30;;;;;;5064890;28;20197;-73
2023/06/12 12:05:37;;;;;;;6.20;5.70;;;29.60;37.00;;;;;;5061834;28;20518;-74
2023/06/12 12:08:04;;;;;;;5.83;5.43;;;29.10;37.10;;;;;;5065787;28;20448;-74
2023/06/12 12:10:41;;;;;;;6.27;5.67;;;28.70;37.50;;;;;;5066057;28;20491;-71
2023/06/12 12:13:07;;;;;;;6.33;5.83;;;28.50;38.40;;;;;;5065816;28;20447;-72
2023/06/12 12:15:39;;;;;;;7.00;6.50;;;28.50;38.70;;;;;;5064642;28;21011;-71
2023/06/12 12:18:14;;;;;;;6.33;5.83;;;28.50;39.30;;;;;;5066961;28;20323;-74
2023/06/12 12:20:40;;;;;;;7.07;6.57;;;28.50;39.50;;;;;;5068465;28;20471;-74
2023/06/12 12:23:10;;;;;;;6.73;6.23;;;28.50;39.40;;;;;;5064521;28;20455;-73
2023/06/12 12:25:36;;;;;;;6.70;6.10;;;28.90;40.60;;;;;;5065368;28;20186;-74
2023/06/12 12:28:03;;;;;;;7.20;6.70;;;28.20;40.20;;;;;;5064986;28;20469;-75
2023/06/12 12:30:30;;;;;;;6.93;6.43;;;28.20;39.60;;;;;;5066457;28;20205;-75
2023/06/12 12:32:56;;;;;;;6.60;6.10;;;28.10;39.60;;;;;;5063390;28;20457;-74
2023/06/12 12:35:23;;;;;;;6.70;6.20;;;28.10;39.80;;;;;;5063254;28;20819;-77
2023/06/12 12:37:50;;;;;;;6.90;6.30;;;28.10;40.10;;;;;;5069957;28;20534;-73
2023/06/12 12:40:16;;;;;;;7.40;6.70;;;28.10;39.70;;;;;;5066832;28;20474;-77
2023/06/12 12:42:47;;;;;;;5.90;5.30;;;28.00;40.20;;;;;;5066442;28;20453;-73
2023/06/12 12:45:15;;;;;;;8.20;6.60;;;28.00;39.90;;;;;;5065342;28;20191;-75
2023/06/12 12:47:44;;;;;;;7.77;7.17;;;28.00;39.80;;;;;;5065885;28;20457;-75
2023/06/12 12:50:10;;;;;;;7.10;6.50;;;28.10;39.80;;;;;;5066494;28;20502;-74
2023/06/12 12:52:37;;;;;;;7.43;5.90;;;28.10;40.20;;;;;;5064110;28;20471;-69